Home > Products > Valid Products > TAF

000
FTUS41 KAKQ 050400 AAD
TAFPHF
TAF AMD
KPHF 050404Z 0504/0524 VRB03KT 2SM BR OVC040
      TEMPO 0504/0507 1/4SM FG OVC002
     FM050700 01012G20KT 2SM -RA BR OVC003
     FM051000 02012G22KT 3SM -RA BR OVC007
     FM051900 03010G17KT 1SM -FZRAPL BR OVC005=



000
FTUS41 KAKQ 050300 AAA
TAFRIC
TAF AMD
KRIC 050342Z 0504/0524 02010KT 5SM BR BKN035 OVC050
      TEMPO 0504/0508 1SM -RA BR OVC015
     FM050900 02014G22KT 3SM -RA BR OVC008
     FM051200 02015G25KT 1SM -RAPL BR OVC007
     FM051800 02015G24KT 1/2SM SN FG OVC005=



000
FTUS41 KAKQ 050300 AAB
TAFSBY
TAF AMD
KSBY 050337Z 0504/0524 VRB03KT 1/2SM FG OVC002
      TEMPO 0504/0507 1SM -RA BR OVC050
     FM050700 36010G18KT 2SM -RA BR OVC003
     FM051400 01012G20KT 1/2SM SN FG OVC003
     FM051900 35010KT 1/2SM SN FG OVC003=



000
FTUS41 KAKQ 050300 AAB
TAFORF
TAF AMD
KORF 050333Z 0504/0524 01006KT 1/4SM FG OVC002
      TEMPO 0504/0506 2SM BR BKN004 OVC050
     FM050600 36008KT 4SM BR OVC015
     FM050900 01015G25KT 4SM -RA BR OVC015
     FM051400 03018G27KT 2SM -RA BR OVC008
     FM052100 02020G27KT 1SM -FZRAPL OVC005=



000
FTUS41 KAKQ 050300 AAB
TAFORF
TAF AMD
KORF 050333Z 0504/0524 01006KT 1/4SM FG OVC002
      TEMPO 0504/0506 2SM BR BKN004 OVC050
     FM050600 36008KT 4SM BR OVC015
     FM050900 01015G25KT 4SM -RA BR OVC015
     FM051400 03018G27KT 2SM -RA BR OVC008
     FM052100 02020G27KT 1SM -FZRAPL OVC005=



000
FTUS41 KAKQ 050300 AAA
TAFORF
TAF AMD
KORF 050313Z 0503/0524 01006KT 2SM BR OVC002
      TEMPO 0503/0506 P6SM NSW OVC050
     FM050600 36008KT 4SM BR OVC015
     FM050900 01015G25KT 4SM -RA BR OVC015
     FM051400 03018G27KT 2SM -RA BR OVC008
     FM052100 02020G27KT 1SM -FZRAPL OVC005=



000
FTUS41 KAKQ 050200 AAC
TAFPHF
TAF AMD
KPHF 050215Z 0502/0524 VRB03KT P6SM SCT015 OVC040
      TEMPO 0502/0505 1SM BR OVC002
     FM050500 35010KT 2SM BR OVC005
     FM050700 01010G18KT 4SM BR OVC003
     FM051000 02012G22KT 3SM -RA BR OVC007
     FM051900 03010G17KT 1SM -FZRAPL BR OVC005=



000
FTUS41 KAKQ 050100 AAB
TAFPHF
TAF AMD
KPHF 050120Z 0501/0524 VRB03KT P6SM SCT015 OVC040
     FM050700 01010G18KT 4SM BR OVC015
     FM051000 02012G22KT 3SM -RA BR OVC007
     FM051900 03010G17KT 1SM -FZRAPL BR OVC005=



000
FTUS41 KAKQ 050100 AAB
TAFPHF
TAF AMD
KPHF 050120Z 0501/0524 VRB03KT P6SM SCT015 OVC040
     FM050700 01010G18KT 4SM BR OVC015
     FM051000 02012G22KT 3SM -RA BR OVC007
     FM051900 03010G17KT 1SM -FZRAPL BR OVC005=



000
FTUS41 KAKQ 050000 AAA
TAFSBY
TAF AMD
KSBY 050045Z 0501/0524 VRB03KT 1/2SM FG OVC002
      TEMPO 0501/0504 1SM BR OVC050
     FM050400 36011G18KT 2SM -DZ BR OVC003
     FM051000 36010KT 1SM -RA BR OVC004
     FM051400 01012G19KT 1/2SM SN FG OVC003
     FM051900 35011KT 1/2SM SN FG OVC003=



000
FTUS41 KAKQ 050000 AAA
TAFPHF
TAF AMD
KPHF 050036Z 0501/0524 07005KT 5SM BR OVC003
      TEMPO 0501/0503 SCT003 OVC015
     FM050300 VRB03KT 5SM BR SCT015 OVC040
     FM050600 02010G18KT 4SM BR OVC015
     FM050900 03012G22KT 3SM -RA BR OVC007
     FM051900 03010G17KT 1SM -FZRAPL BR OVC005=



000
FTUS41 KAKQ 042300
TAFECG
TAF
KECG 042340Z 0500/0524 20010KT P6SM BKN040
     FM050900 01013G23KT 3SM -RA BR OVC015
     FM051500 02015G25KT 2SM -RA BR OVC008
     FM052300 01018G28KT 1SM -FZRA BR OVC005=



000
FTUS41 KAKQ 042300
TAFORF
TAF
KORF 042340Z 0500/0524 03006KT P6SM OVC040
     FM050900 01015G25KT 4SM -RA BR OVC015
     FM051400 03018G27KT 2SM -RA BR OVC008
     FM052100 02020G27KT 1SM -FZRAPL OVC005=



000
FTUS41 KAKQ 042300
TAFRIC
TAF
KRIC 042340Z 0500/0524 02010KT P6SM BKN035 OVC050
      TEMPO 0500/0502 -RA OVC025
     FM050400 02011KT 5SM -RA BR OVC015
     FM050900 02014G22KT 3SM -RA BR OVC008
     FM051200 02015G25KT 1SM -RAPL BR OVC007
     FM051800 02015G24KT 1/2SM SN FG OVC005=



000
FTUS41 KAKQ 042300
TAFSBY
TAF
KSBY 042340Z 0500/0524 VRB03KT 2SM -DZ BR OVC004
      TEMPO 0500/0501 1/4SM FG OVC001
     FM050100 01005KT 1SM -DZ BR OVC002
     FM050500 36011KT 2SM -DZ BR OVC003
     FM051000 36010KT 1SM -RA BR OVC004
     FM051400 01012G19KT 1/2SM SN FG OVC003
     FM051900 35011KT 1/2SM SN FG OVC003=



000
FTUS41 KAKQ 042300
TAFPHF
TAF
KPHF 042340Z 0500/0524 05005KT P6SM BKN050
      TEMPO 0502/0505 OVC025
     FM050600 02012KT 3SM -RA BR OVC015
     FM051200 03012G22KT 3SM -RA BR OVC007
     FM051900 03010G17KT 1SM -FZRAPL BR OVC005=



000
FTUS41 KAKQ 042300 AAA
TAFSBY
TAF AMD
KSBY 042327Z 0423/0518 VRB03KT 2SM -DZ BR OVC004
      TEMPO 0423/0501 1/4SM FG OVC001
     FM050100 05005KT 1SM -DZ BR OVC002
     FM050600 34008KT 3SM -RA BR OVC003
     FM051200 35010KT 1SM -RASN BR OVC004=



000
FTUS41 KAKQ 042300 AAA
TAFECG
TAF AMD
KECG 042320Z 0423/0518 20010KT P6SM BKN040
     FM050900 01013G23KT 3SM -RA BR OVC015
     FM051500 02015G27KT 2SM -RA BR OVC008=



000
FTUS41 KAKQ 042300 AAB
TAFORF
TAF AMD
KORF 042313Z 0423/0518 03006KT P6SM OVC040
     FM050900 01015G25KT 4SM -RA BR OVC015
     FM051400 03018G27KT 2SM -RA BR OVC008=



000
FTUS41 KAKQ 042300 AAB
TAFORF
TAF AMD
KORF 042313Z 0423/0518 03006KT P6SM OVC040
     FM050900 01015G25KT 4SM -RA BR OVC015
     FM051400 03018G27KT 2SM -RA BR OVC008=



000
FTUS41 KAKQ 042300 AAB
TAFPHF
TAF AMD
KPHF 042311Z 0423/0518 05005KT P6SM OVC025
      TEMPO 0423/0502 OVC035
     FM050600 02012KT 3SM -RA BR OVC015
     FM051200 03012G22KT 3SM -RA BR OVC007=



000
FTUS41 KAKQ 042300 AAB
TAFPHF
TAF AMD
KPHF 042311Z 0423/0518 05005KT P6SM OVC025
      TEMPO 0423/0502 OVC035
     FM050600 02012KT 3SM -RA BR OVC015
     FM051200 03012G22KT 3SM -RA BR OVC007=



000
FTUS41 KAKQ 042200 AAD
TAFSBY
TAF AMD
KSBY 042219Z 0422/0518 22005KT 3SM BR OVC004
     FM042300 VRB03KT 3SM -DZ BR OVC004
     FM050100 05005KT 3SM -DZ BR OVC003
     FM050600 34012KT 3SM -RA BR OVC003
     FM051200 35010KT 1SM -RASN BR OVC004=



000
FTUS41 KAKQ 042100 AAB
TAFRIC
TAF AMD
KRIC 042136Z 0422/0518 02007KT P6SM OVC035
     FM042200 03005KT P6SM OVC030
      TEMPO 0423/0424 OVC020
     FM050000 02010KT P6SM OVC015
     FM050200 02012KT 3SM -RA BR OVC007
     FM051200 02015KT 1SM -RASN BR OVC007=



000
FTUS41 KAKQ 042000 AAA
TAFORF
TAF AMD
KORF 042004Z 0420/0518 20012KT P6SM BKN025
     FM050000 21012KT P6SM OVC025
     FM050600 01015G25KT 4SM -RA BR OVC007=



000
FTUS41 KAKQ 042000 AAA
TAFORF
TAF AMD
KORF 042004Z 0420/0518 20012KT P6SM BKN025
     FM050000 21012KT P6SM OVC025
     FM050600 01015G25KT 4SM -RA BR OVC007=



000
FTUS41 KAKQ 042000 AAC
TAFSBY
TAF AMD
KSBY 042001Z 0420/0518 20006KT 3SM -DZ BR OVC004
      TEMPO 0420/0422 OVC002
     FM042200 05008KT 3SM -DZ BR OVC004
     FM050000 04010KT 3SM -RA BR OVC004
     FM050500 34012KT 3SM -RA BR OVC004
     FM051200 35010KT 1SM -RASN BR OVC004=



000
FTUS41 KAKQ 042000 AAC
TAFSBY
TAF AMD
KSBY 042001Z 0420/0518 20006KT 3SM -DZ BR OVC004
      TEMPO 0420/0422 OVC002
     FM042200 05008KT 3SM -DZ BR OVC004
     FM050000 04010KT 3SM -RA BR OVC004
     FM050500 34012KT 3SM -RA BR OVC004
     FM051200 35010KT 1SM -RASN BR OVC004=



000
FTUS41 KAKQ 041900 AAA
TAFPHF
TAF AMD
KPHF 041939Z 0420/0518 20012KT P6SM BKN025
     FM050000 26010KT 4SM BR OVC007
     FM050600 02012KT 3SM -RA BR OVC007
     FM051200 03012G22KT 3SM -RA BR OVC007=



000
FTUS41 KAKQ 041900 AAA
TAFPHF
TAF AMD
KPHF 041939Z 0420/0518 20012KT P6SM BKN025
     FM050000 26010KT 4SM BR OVC007
     FM050600 02012KT 3SM -RA BR OVC007
     FM051200 03012G22KT 3SM -RA BR OVC007=



000
FTUS41 KAKQ 041900 AAA
TAFECG
TAF AMD
KECG 041938Z 0420/0518 22013G23KT P6SM BKN040
     FM042100 20012KT P6SM BKN025
     FM050600 27011KT 4SM BR OVC007
     FM050900 01013G23KT 3SM -RA BR OVC007=



000
FTUS41 KAKQ 041900 AAA
TAFECG
TAF AMD
KECG 041938Z 0420/0518 22013G23KT P6SM BKN040
     FM042100 20012KT P6SM BKN025
     FM050600 27011KT 4SM BR OVC007
     FM050900 01013G23KT 3SM -RA BR OVC007=



000
FTUS41 KAKQ 041900 AAB
TAFSBY
TAF AMD
KSBY 041934Z 0420/0518 20006KT 3SM -DZ BR OVC003
     FM042100 05008KT 3SM -DZ BR OVC007
     FM050000 04010KT 3SM -RA BR OVC007
     FM050500 34012KT 3SM -RA BR OVC007
     FM051200 35010KT 1SM -RASN BR OVC007=



000
FTUS41 KAKQ 041900 AAA
TAFRIC
TAF AMD
KRIC 041933Z 0420/0518 24010KT P6SM SCT015 OVC035
     FM042100 23008KT P6SM OVC015
     FM050000 02010KT P6SM OVC007
     FM050200 02012KT 3SM -RA BR OVC007
     FM051200 02015KT 1SM -RASN BR OVC007=



000
FTUS41 KAKQ 041700 AAA
TAFSBY
TAF AMD
KSBY 041759Z 0418/0518 22006KT 4SM -RA BR BKN004 OVC040
      TEMPO 0418/0419 2SM -RA BKN002
     FM042100 05008KT 3SM -DZ BR OVC007
     FM050000 04010KT 3SM -RA BR OVC007
     FM050500 34012KT 3SM -RA BR OVC007
     FM051200 35010KT 1SM -RASN BR OVC007=



000
FTUS41 KAKQ 041700 CCA
TAFECG
TAF COR
KECG 041758Z 0418/0518 23015G25KT P6SM BKN010 BKN045
      TEMPO 0418/0419 BKN009
     FM041900 22013G23KT P6SM BKN025
     FM042100 20012KT P6SM BKN025
     FM050600 27011KT 4SM BR OVC007
     FM050900 01013G23KT 3SM -RA BR OVC007=



000
FTUS41 KAKQ 041700 CCA
TAFPHF
TAF COR
KPHF 041749Z 0418/0518 22012KT 5SM BR SCT005 OVC025
      TEMPO 0418/0419 BKN005
     FM042000 20012KT P6SM BKN025
     FM050000 26010KT 4SM BR OVC007
     FM050600 02012KT 3SM -RA BR OVC007
     FM051200 03012G22KT 3SM -RA BR OVC007=



000
FTUS41 KAKQ 041700 CCA
TAFPHF
TAF COR
KPHF 041749Z 0418/0518 22012KT 5SM BR SCT005 OVC025
      TEMPO 0418/0419 BKN005
     FM042000 20012KT P6SM BKN025
     FM050000 26010KT 4SM BR OVC007
     FM050600 02012KT 3SM -RA BR OVC007
     FM051200 03012G22KT 3SM -RA BR OVC007=



000
FTUS41 KAKQ 041700
TAFECG
TAF
KECG 041733Z 0418/0518 23015G25KT P6SM OVC008
     FM041900 22013G23KT P6SM OVC015
     FM042100 20012KT P6SM BKN025
     FM050600 27011KT 4SM BR OVC007
     FM050900 01013G23KT 3SM -RA BR OVC007=



000
FTUS41 KAKQ 041700
TAFRIC
TAF
KRIC 041733Z 0418/0518 24010KT P6SM OVC012
      TEMPO 0418/0419 OVC008
     FM042100 23008KT P6SM OVC015
     FM042300 02010KT P6SM OVC007
     FM050200 02012KT 3SM -RA BR OVC007
     FM051200 02015KT 1SM -RASN BR OVC007=



000
FTUS41 KAKQ 041700
TAFORF
TAF
KORF 041733Z 0418/0518 23010G18KT P6SM OVC015
     FM042100 20012KT P6SM BKN025
     FM050000 21012KT P6SM OVC025
     FM050600 01015G25KT 4SM -RA BR OVC007=



000
FTUS41 KAKQ 041700
TAFPHF
TAF
KPHF 041733Z 0418/0518 22012KT 5SM BR OVC005
     FM042000 20012KT P6SM OVC015
     FM050000 26010KT 4SM BR OVC007
     FM050600 02012KT 3SM -RA BR OVC007
     FM051200 03012G22KT 3SM -RA BR OVC007=



000
FTUS41 KAKQ 041700
TAFSBY
TAF
KSBY 041733Z 0418/0518 22006KT 4SM -RA BR BKN004 OVC040
     FM042100 05008KT 3SM -DZ BR OVC007
     FM050000 04010KT 3SM -RA BR OVC007
     FM050500 34012KT 3SM -RA BR OVC007
     FM051200 35010KT 1SM -RASN BR OVC007=



000
FTUS41 KAKQ 041700
TAFORF
TAF
KORF 041733Z 0418/0518 23010G18KT P6SM OVC015
     FM042100 20012KT P6SM BKN025
     FM050000 21012KT P6SM OVC025
     FM050600 01015G25KT 4SM -RA BR OVC007=



000
FTUS41 KAKQ 041700
TAFSBY
TAF
KSBY 041733Z 0418/0518 22006KT 4SM -RA BR BKN004 OVC040
     FM042100 05008KT 3SM -DZ BR OVC007
     FM050000 04010KT 3SM -RA BR OVC007
     FM050500 34012KT 3SM -RA BR OVC007
     FM051200 35010KT 1SM -RASN BR OVC007=



000
FTUS41 KAKQ 041700
TAFECG
TAF
KECG 041733Z 0418/0518 23015G25KT P6SM OVC008
     FM041900 22013G23KT P6SM OVC015
     FM042100 20012KT P6SM BKN025
     FM050600 27011KT 4SM BR OVC007
     FM050900 01013G23KT 3SM -RA BR OVC007=



000
FTUS41 KAKQ 041700
TAFPHF
TAF
KPHF 041733Z 0418/0518 22012KT 5SM BR OVC005
     FM042000 20012KT P6SM OVC015
     FM050000 26010KT 4SM BR OVC007
     FM050600 02012KT 3SM -RA BR OVC007
     FM051200 03012G22KT 3SM -RA BR OVC007=



000
FTUS41 KAKQ 041700
TAFRIC
TAF
KRIC 041733Z 0418/0518 24010KT P6SM OVC012
      TEMPO 0418/0419 OVC008
     FM042100 23008KT P6SM OVC015
     FM042300 02010KT P6SM OVC007
     FM050200 02012KT 3SM -RA BR OVC007
     FM051200 02015KT 1SM -RASN BR OVC007=



000
FTUS41 KAKQ 041600 AAC
TAFPHF
TAF AMD
KPHF 041700Z 0417/0512 22012G20KT 1SM BR OVC004
     FM041800 24012G20KT 5SM BR OVC007
     FM041900 22012G22KT P6SM OVC015
     FM050000 32010KT 3SM BR OVC007
     FM050600 02010G18KT 3SM -RA BR OVC007=



000
FTUS41 KAKQ 041500 CCA
TAFECG
TAF COR
KECG 041520Z 0415/0512 22013KT 5SM BR OVC004
     FM041700 23015G25KT P6SM OVC015
     FM041800 22015G25KT P6SM SCT015 OVC040
     FM050600 33013KT 4SM BR OVC007
     FM050900 01015G25KT 3SM -RA BR OVC007=



000
FTUS41 KAKQ 041500 AAB
TAFPHF
TAF AMD
KPHF 041516Z 0415/0512 24010KT 1/2SM FG OVC002
      TEMPO 0415/0416 1/4SM FG VV002
     FM041700 24012G22KT 5SM BR OVC007
     FM041900 22012G22KT P6SM OVC015
     FM050000 32010KT 3SM BR OVC007
     FM050600 02010G18KT 3SM -RA BR OVC007=



000
FTUS41 KAKQ 041500 AAB
TAFECG
TAF AMD
KECG 041516Z 0415/0512 22013KT 3SM BR OVC002
     FM041700 23015G25KT P6SM OVC015
     FM041800 22015G25KT P6SM SCT015 OVC040
     FM050600 33013KT 4SM BR OVC007
     FM050900 01015G25KT 3SM -RA BR OVC007=



000
FTUS41 KAKQ 041500 AAB
TAFORF
TAF AMD
KORF 041516Z 0415/0512 23013G23KT 5SM BR OVC005
     FM041600 23013G23KT P6SM OVC007
     FM041800 23013G23KT P6SM OVC015
     FM050000 20010KT 5SM BR OVC007
     FM050600 35015G25KT 4SM -RA BR OVC007=



000
FTUS41 KAKQ 041500 AAB
TAFECG
TAF AMD
KECG 041516Z 0415/0512 22013KT 3SM BR OVC002
     FM041700 23015G25KT P6SM OVC015
     FM041800 22015G25KT P6SM SCT015 OVC040
     FM050600 33013KT 4SM BR OVC007
     FM050900 01015G25KT 3SM -RA BR OVC007=



000
FTUS41 KAKQ 041500 AAB
TAFORF
TAF AMD
KORF 041516Z 0415/0512 23013G23KT 5SM BR OVC005
     FM041600 23013G23KT P6SM OVC007
     FM041800 23013G23KT P6SM OVC015
     FM050000 20010KT 5SM BR OVC007
     FM050600 35015G25KT 4SM -RA BR OVC007=



000
FTUS41 KAKQ 041500 AAB
TAFPHF
TAF AMD
KPHF 041516Z 0415/0512 24010KT 1/2SM FG OVC002
      TEMPO 0415/0416 1/4SM FG VV002
     FM041700 24012G22KT 5SM BR OVC007
     FM041900 22012G22KT P6SM OVC015
     FM050000 32010KT 3SM BR OVC007
     FM050600 02010G18KT 3SM -RA BR OVC007=



000
FTUS41 KAKQ 041400 AAA
TAFRIC
TAF AMD
KRIC 041430Z 0415/0512 23010G18KT P6SM OVC015
     FM041800 26010KT P6SM OVC015
     FM042100 31010KT P6SM OVC015
     FM050000 02010KT P6SM OVC007
     FM050200 02012KT 4SM -RA OVC007=



000
FTUS41 KAKQ 041400 AAB
TAFSBY
TAF AMD
KSBY 041430Z 0415/0512 24008KT 3SM -RA BR BKN005 OVC040
      TEMPO 0415/0417 1SM RA BR OVC005
     FM041900 32006KT 4SM -DZ BR OVC007
     FM042100 02007KT 5SM -DZ BR OVC007
     FM050000 01010KT 3SM -RA BR OVC007=



000
FTUS41 KAKQ 041300 AAA
TAFSBY
TAF AMD
KSBY 041321Z 0413/0512 24008KT 5SM BR BKN011 OVC040
      TEMPO 0413/0416 BKN009
     FM041800 31007KT 4SM BR BKN006
     FM042300 01012KT 4SM -RA OVC007=



000
FTUS41 KAKQ 041300 AAA
TAFECG
TAF AMD
KECG 041314Z 0413/0512 23012KT 1SM BR OVC002
      TEMPO 0413/0415 1/2SM FG VV001
     FM041600 23015G23KT P6SM SCT025
     FM050600 35013KT 4SM -RA OVC007=



000
FTUS41 KAKQ 041300 AAA
TAFECG
TAF AMD
KECG 041314Z 0413/0512 23012KT 1SM BR OVC002
      TEMPO 0413/0415 1/2SM FG VV001
     FM041600 23015G23KT P6SM SCT025
     FM050600 35013KT 4SM -RA OVC007=



000
FTUS41 KAKQ 041300 AAA
TAFPHF
TAF AMD
KPHF 041309Z 0413/0512 24013KT 1SM BR OVC002
      TEMPO 0413/0415 1/2SM FG VV001
     FM041500 24014G20KT 3SM BR OVC015
     FM041700 24014G22KT P6SM BKN020
     FM050200 35012KT 4SM -RA OVC007=



000
FTUS41 KAKQ 041300 AAA
TAFPHF
TAF AMD
KPHF 041309Z 0413/0512 24013KT 1SM BR OVC002
      TEMPO 0413/0415 1/2SM FG VV001
     FM041500 24014G20KT 3SM BR OVC015
     FM041700 24014G22KT P6SM BKN020
     FM050200 35012KT 4SM -RA OVC007=



000
FTUS41 KAKQ 041300 AAA
TAFORF
TAF AMD
KORF 041306Z 0413/0512 23016G24KT 2SM BR OVC004
      TEMPO 0413/0415 1SM BR OVC002
     FM041600 23015G23KT P6SM BKN008
     FM041900 22013G22KT 4SM BR OVC020
     FM050400 35014G22KT 4SM -RA OVC007=



000
FTUS41 KAKQ 041300 AAA
TAFORF
TAF AMD
KORF 041306Z 0413/0512 23016G24KT 2SM BR OVC004
      TEMPO 0413/0415 1SM BR OVC002
     FM041600 23015G23KT P6SM BKN008
     FM041900 22013G22KT 4SM BR OVC020
     FM050400 35014G22KT 4SM -RA OVC007=



000
FTUS41 KAKQ 041100
TAFECG
TAF
KECG 041138Z 0412/0512 23011KT 1SM BR OVC003
     FM041600 23015G23KT P6SM SCT025
     FM050600 35013KT 4SM -RA OVC007=



000
FTUS41 KAKQ 041100
TAFSBY
TAF
KSBY 041138Z 0412/0512 25012KT 4SM BR BKN004
      TEMPO 0412/0414 SCT004 BKN012
     FM041800 31007KT 4SM BR BKN006
     FM042300 01012KT 4SM -RA OVC007=



000
FTUS41 KAKQ 041100
TAFRIC
TAF
KRIC 041138Z 0412/0512 22013KT P6SM OVC006
     FM041700 26012KT P6SM BKN015
     FM050000 02010KT 4SM -RA OVC006=



000
FTUS41 KAKQ 041100
TAFPHF
TAF
KPHF 041138Z 0412/0512 24014G20KT 2SM BR OVC003
     FM041700 24014G22KT P6SM BKN020
     FM050200 35012KT 4SM -RA OVC007=



000
FTUS41 KAKQ 041100
TAFORF
TAF
KORF 041138Z 0412/0512 23016G24KT 5SM BR OVC004
     FM041600 23015G23KT P6SM BKN008
     FM041900 22013G22KT 4SM BR OVC020
     FM050400 35014G22KT 4SM -RA OVC007=



000
FTUS41 KAKQ 040900 AAA
TAFECG
TAF AMD
KECG 040939Z 0410/0506 23011KT 1/2SM -DZ FG OVC003
     FM041600 23016G24KT P6SM OVC020
     FM050400 24012KT 4SM -RA OVC007=



000
FTUS41 KAKQ 040900 AAA
TAFRIC
TAF AMD
KRIC 040939Z 0410/0506 22013KT 4SM BR OVC007
     FM041700 26013G19KT P6SM OVC015
     FM050000 01010KT 4SM -RA OVC006=



000
FTUS41 KAKQ 040900 AAA
TAFSBY
TAF AMD
KSBY 040939Z 0410/0506 25012KT 4SM BR OVC005
      TEMPO 0410/0412 2SM -RA BR OVC004
     FM041700 30007KT 4SM BR OVC006
     FM042300 01011KT 4SM -RA OVC007=



000
FTUS41 KAKQ 040500
TAFORF
TAF
KORF 040535Z 0406/0506 22014KT 4SM -DZ BR OVC004
     FM041500 23014G22KT P6SM OVC008
     FM041900 22013G22KT 4SM BR OVC020
     FM050400 36012KT 4SM -RA OVC007=



000
FTUS41 KAKQ 040500
TAFSBY
TAF
KSBY 040535Z 0406/0506 23013G20KT 2SM -DZ BR OVC005
     FM040700 23011KT 3SM -RA BR OVC004
     FM041600 29007KT 4SM BR OVC006
     FM042300 01010KT 4SM -RA OVC007=



000
FTUS41 KAKQ 040500
TAFPHF
TAF
KPHF 040535Z 0406/0506 23012KT 3SM -DZ BR OVC004
     FM041600 24014G22KT P6SM OVC020
     FM050300 36011KT 4SM -RA OVC007=



000
FTUS41 KAKQ 040500
TAFRIC
TAF
KRIC 040535Z 0406/0506 20011KT 4SM -DZ BR OVC005
     FM040800 22010KT 2SM -DZ BR OVC004
     FM041600 26013G19KT P6SM OVC015
     FM050000 01010KT 4SM -RA OVC007=



000
FTUS41 KAKQ 040500
TAFECG
TAF
KECG 040535Z 0406/0506 22009KT 2SM -DZ BR OVC003
     FM041500 23015G22KT P6SM OVC020
     FM050500 23012KT 4SM -RA OVC007=



000
FTUS41 KAKQ 040500
TAFECG
TAF
KECG 040535Z 0406/0506 22009KT 2SM -DZ BR OVC003
     FM041500 23015G22KT P6SM OVC020
     FM050500 23012KT 4SM -RA OVC007=



000
FTUS41 KAKQ 040500
TAFSBY
TAF
KSBY 040535Z 0406/0506 23013G20KT 2SM -DZ BR OVC005
     FM040700 23011KT 3SM -RA BR OVC004
     FM041600 29007KT 4SM BR OVC006
     FM042300 01010KT 4SM -RA OVC007=



000
FTUS41 KAKQ 040500
TAFPHF
TAF
KPHF 040535Z 0406/0506 23012KT 3SM -DZ BR OVC004
     FM041600 24014G22KT P6SM OVC020
     FM050300 36011KT 4SM -RA OVC007=



000
FTUS41 KAKQ 040500
TAFRIC
TAF
KRIC 040535Z 0406/0506 20011KT 4SM -DZ BR OVC005
     FM040800 22010KT 2SM -DZ BR OVC004
     FM041600 26013G19KT P6SM OVC015
     FM050000 01010KT 4SM -RA OVC007=



000
FTUS41 KAKQ 040500
TAFORF
TAF
KORF 040535Z 0406/0506 22014KT 4SM -DZ BR OVC004
     FM041500 23014G22KT P6SM OVC008
     FM041900 22013G22KT 4SM BR OVC020
     FM050400 36012KT 4SM -RA OVC007=



000
FTUS41 KAKQ 040300 AAA
TAFECG
TAF AMD
KECG 040316Z 0403/0424 22004KT 6SM BR OVC015
      TEMPO 0403/0405 4SM -RA BR BKN007
     FM040500 22009KT 3SM -DZ BR OVC008
     FM041500 24015G22KT P6SM OVC020=



000
FTUS41 KAKQ 040300 AAA
TAFECG
TAF AMD
KECG 040316Z 0403/0424 22004KT 6SM BR OVC015
      TEMPO 0403/0405 4SM -RA BR BKN007
     FM040500 22009KT 3SM -DZ BR OVC008
     FM041500 24015G22KT P6SM OVC020=



000
FTUS41 KAKQ 040100 AAA
TAFORF
TAF AMD
KORF 040100Z 0401/0424 21008KT P6SM OVC015
      TEMPO 0403/0405 -RA OVC008
     FM040500 22012KT 4SM -RA BR OVC008
     FM040800 22014KT 4SM -DZ BR OVC004
     FM041500 24014G23KT P6SM OVC008
     FM041900 22013G22KT 4SM BR OVC020=



000
FTUS41 KAKQ 040100 AAA
TAFORF
TAF AMD
KORF 040100Z 0401/0424 21008KT P6SM OVC015
      TEMPO 0403/0405 -RA OVC008
     FM040500 22012KT 4SM -RA BR OVC008
     FM040800 22014KT 4SM -DZ BR OVC004
     FM041500 24014G23KT P6SM OVC008
     FM041900 22013G22KT 4SM BR OVC020=



000
FTUS41 KAKQ 040000 AAA
TAFRIC
TAF AMD
KRIC 040058Z 0401/0424 21011KT P6SM OVC012
      TEMPO 0401/0403 5SM -RA BR BKN008 OVC012
     FM040300 21013KT 4SM -DZ BR OVC008
     FM040800 22010KT 2SM -DZ BR OVC004
     FM041500 24013G20KT P6SM OVC015=



000
FTUS41 KAKQ 040000 AAA
TAFRIC
TAF AMD
KRIC 040058Z 0401/0424 21011KT P6SM OVC012
      TEMPO 0401/0403 5SM -RA BR BKN008 OVC012
     FM040300 21013KT 4SM -DZ BR OVC008
     FM040800 22010KT 2SM -DZ BR OVC004
     FM041500 24013G20KT P6SM OVC015=



000
FTUS41 KAKQ 040000 AAA
TAFPHF
TAF AMD
KPHF 040055Z 0401/0424 20005KT P6SM OVC015
     FM040200 20008KT P6SM OVC008
      TEMPO 0402/0404 5SM -RA
     FM040400 22013KT 3SM -DZ BR OVC005
     FM041700 24014G23KT P6SM OVC020=



000
FTUS41 KAKQ 040000 AAA
TAFPHF
TAF AMD
KPHF 040055Z 0401/0424 20005KT P6SM OVC015
     FM040200 20008KT P6SM OVC008
      TEMPO 0402/0404 5SM -RA
     FM040400 22013KT 3SM -DZ BR OVC005
     FM041700 24014G23KT P6SM OVC020=



000
FTUS41 KAKQ 032300
TAFSBY
TAF
KSBY 032340Z 0400/0424 19006KT 5SM -RA BR SCT015 OVC025
      TEMPO 0400/0402 OVC015
     FM040200 20009KT 4SM -RA BR OVC015
     FM040400 20013G20KT 2SM -DZ BR OVC004
     FM041000 25007KT 3SM -RA BR OVC004
     FM041500 27006KT 4SM BR OVC006=



000
FTUS41 KAKQ 032300
TAFRIC
TAF
KRIC 032340Z 0400/0424 20009KT 4SM -RA BR OVC015
     FM040300 21012KT 4SM -DZ BR OVC008
     FM040800 22010KT 2SM -DZ BR OVC004
     FM041500 24013G20KT P6SM OVC015=



000
FTUS41 KAKQ 032300
TAFECG
TAF
KECG 032340Z 0400/0424 13005KT P6SM OVC035
      TEMPO 0400/0403 -RA OVC025
     FM040300 20007KT 4SM -RA BR OVC015
     FM040500 22011KT 3SM -DZ BR OVC008
     FM041500 24016G24KT P6SM VCSH OVC025=



000
FTUS41 KAKQ 032300
TAFORF
TAF
KORF 032340Z 0400/0424 21008KT P6SM -RA OVC025
     FM040200 22009KT 5SM -RA OVC015
     FM040400 22012KT 4SM -RA BR OVC008
     FM040800 22014KT 4SM -DZ BR OVC004
     FM041500 24014G23KT P6SM OVC008
     FM041900 22013G22KT 4SM BR OVC020=



000
FTUS41 KAKQ 032300
TAFPHF
TAF
KPHF 032340Z 0400/0424 20005KT P6SM OVC025
      TEMPO 0400/0401 BKN015 OVC030
     FM040200 20008KT 5SM -RA OVC008
     FM040400 22013G21KT 3SM -DZ BR OVC005
     FM041700 24014G23KT P6SM OVC020=



000
FTUS41 KAKQ 032300
TAFORF
TAF
KORF 032340Z 0400/0424 21008KT P6SM -RA OVC025
     FM040200 22009KT 5SM -RA OVC015
     FM040400 22012KT 4SM -RA BR OVC008
     FM040800 22014KT 4SM -DZ BR OVC004
     FM041500 24014G23KT P6SM OVC008
     FM041900 22013G22KT 4SM BR OVC020=



000
FTUS41 KAKQ 032300
TAFRIC
TAF
KRIC 032340Z 0400/0424 20009KT 4SM -RA BR OVC015
     FM040300 21012KT 4SM -DZ BR OVC008
     FM040800 22010KT 2SM -DZ BR OVC004
     FM041500 24013G20KT P6SM OVC015=



000
FTUS41 KAKQ 032300
TAFPHF
TAF
KPHF 032340Z 0400/0424 20005KT P6SM OVC025
      TEMPO 0400/0401 BKN015 OVC030
     FM040200 20008KT 5SM -RA OVC008
     FM040400 22013G21KT 3SM -DZ BR OVC005
     FM041700 24014G23KT P6SM OVC020=



000
FTUS41 KAKQ 032300
TAFECG
TAF
KECG 032340Z 0400/0424 13005KT P6SM OVC035
      TEMPO 0400/0403 -RA OVC025
     FM040300 20007KT 4SM -RA BR OVC015
     FM040500 22011KT 3SM -DZ BR OVC008
     FM041500 24016G24KT P6SM VCSH OVC025=



000
FTUS41 KAKQ 032300
TAFSBY
TAF
KSBY 032340Z 0400/0424 19006KT 5SM -RA BR SCT015 OVC025
      TEMPO 0400/0402 OVC015
     FM040200 20009KT 4SM -RA BR OVC015
     FM040400 20013G20KT 2SM -DZ BR OVC004
     FM041000 25007KT 3SM -RA BR OVC004
     FM041500 27006KT 4SM BR OVC006=



000
FTUS41 KAKQ 032200 AAB
TAFORF
TAF AMD
KORF 032241Z 0323/0418 21008KT P6SM -RA OVC025
      TEMPO 0401/0403 OVC015
     FM040300 22009KT 5SM -RA OVC015
     FM040500 22012KT 4SM -SHRA BR OVC008
     FM041500 24016G25KT P6SM VCSH BKN012 BKN025=



000
FTUS41 KAKQ 032200 AAB
TAFORF
TAF AMD
KORF 032241Z 0323/0418 21008KT P6SM -RA OVC025
      TEMPO 0401/0403 OVC015
     FM040300 22009KT 5SM -RA OVC015
     FM040500 22012KT 4SM -SHRA BR OVC008
     FM041500 24016G25KT P6SM VCSH BKN012 BKN025=



000
FTUS41 KAKQ 032200 AAB
TAFECG
TAF AMD
KECG 032213Z 0322/0418 12004KT P6SM OVC045
     FM032300 13005KT P6SM -RA OVC025
      TEMPO 0400/0402 5SM -RA BR OVC015
     FM040200 02007KT 4SM -RA BR OVC015
     FM040500 22011KT 3SM -RA BR OVC008
     FM041500 24016G24KT P6SM VCSH BKN010 BKN025=



000
FTUS41 KAKQ 032100 AAA
TAFORF
TAF AMD
KORF 032107Z 0321/0418 17005KT P6SM SCT030 OVC045
      TEMPO 0321/0323 OVC030
     FM032300 20012KT 5SM -RA BKN015 OVC030
     FM040300 22012KT 4SM -SHRA BR OVC005
     FM041500 24016G25KT P6SM VCSH BKN012 BKN025=



000
FTUS41 KAKQ 032100 AAA
TAFPHF
TAF AMD
KPHF 032102Z 0321/0418 17005KT P6SM OVC025
      TEMPO 0323/0401 BKN015 OVC030
     FM040100 20008KT 5SM -RA OVC015
     FM040300 22013KT 4SM -RA BR OVC005
     FM041500 24014G23KT P6SM VCSH BKN012 BKN025=



000
FTUS41 KAKQ 032100 AAA
TAFPHF
TAF AMD
KPHF 032102Z 0321/0418 17005KT P6SM OVC025
      TEMPO 0323/0401 BKN015 OVC030
     FM040100 20008KT 5SM -RA OVC015
     FM040300 22013KT 4SM -RA BR OVC005
     FM041500 24014G23KT P6SM VCSH BKN012 BKN025=



000
FTUS41 KAKQ 032000 AAB
TAFRIC
TAF AMD
KRIC 032038Z 0321/0418 18006KT P6SM OVC025
      TEMPO 0322/0324 -RA OVC015
     FM040000 20011KT 4SM -RA BR OVC015
     FM040400 21012KT 4SM -RA BR OVC005
     FM041500 24013G20KT P6SM VCSH BKN010 BKN025 OVC050=



000
FTUS41 KAKQ 032000 AAB
TAFRIC
TAF AMD
KRIC 032038Z 0321/0418 18006KT P6SM OVC025
      TEMPO 0322/0324 -RA OVC015
     FM040000 20011KT 4SM -RA BR OVC015
     FM040400 21012KT 4SM -RA BR OVC005
     FM041500 24013G20KT P6SM VCSH BKN010 BKN025 OVC050=



000
FTUS41 KAKQ 032000 AAA
TAFECG
TAF AMD
KECG 032019Z 0320/0418 12006KT P6SM OVC045
      TEMPO 0321/0323 -RA OVC025
     FM032300 15008KT P6SM -RA OVC015
     FM040200 22012KT 4SM -RA BR OVC005
     FM041500 24016G24KT P6SM VCSH BKN010 BKN025=



000
FTUS41 KAKQ 032000 AAA
TAFECG
TAF AMD
KECG 032019Z 0320/0418 12006KT P6SM OVC045
      TEMPO 0321/0323 -RA OVC025
     FM032300 15008KT P6SM -RA OVC015
     FM040200 22012KT 4SM -RA BR OVC005
     FM041500 24016G24KT P6SM VCSH BKN010 BKN025=



000
FTUS41 KAKQ 032000 AAB
TAFSBY
TAF AMD
KSBY 032016Z 0320/0418 15009KT P6SM -RA OVC045
     FM032300 19011KT 5SM -RA SCT015 OVC025
      TEMPO 0323/0401 OVC015
     FM040100 20011KT 5SM -RA BR OVC015
     FM040400 20013G20KT 4SM -SHRA BR OVC004
     FM041000 24010KT 3SM -RA BR OVC004=



000
FTUS41 KAKQ 032000 AAA
TAFRIC
TAF AMD
KRIC 032014Z 0320/0418 18006KT P6SM OVC035
     FM032130 19008KT P6SM OVC035
     FM032230 19009KT P6SM -RA OVC025
     FM040000 20011KT 4SM -RA BR OVC015
     FM040400 21012KT 4SM -RA BR OVC005
     FM041500 24013G20KT P6SM VCSH BKN010 BKN025 OVC050=



000
FTUS41 KAKQ 031800 AAA
TAFSBY
TAF AMD
KSBY 031859Z 0319/0418 15009KT P6SM -SHRA BKN050 BKN100
     FM032100 19011KT 5SM -SHRA BKN012 OVC025
     FM040200 20013G20KT 4SM -SHRA BR OVC004
     FM041000 24010KT 3SM -RA BR OVC004=



000
FTUS41 KAKQ 031800 AAA
TAFSBY
TAF AMD
KSBY 031859Z 0319/0418 15009KT P6SM -SHRA BKN050 BKN100
     FM032100 19011KT 5SM -SHRA BKN012 OVC025
     FM040200 20013G20KT 4SM -SHRA BR OVC004
     FM041000 24010KT 3SM -RA BR OVC004=



000
FTUS41 KAKQ 031700
TAFECG
TAF
KECG 031736Z 0318/0418 08008KT P6SM OVC045
     FM032100 12010KT 5SM -SHRA BKN012 OVC030
     FM040200 22012KT 4SM -SHRA BR OVC005
     FM041500 24016G24KT P6SM VCSH BKN010 BKN025=



000
FTUS41 KAKQ 031700
TAFORF
TAF
KORF 031736Z 0318/0418 07008KT P6SM OVC045
     FM032300 20012KT 5SM -SHRA BKN012 OVC030
     FM040300 22012KT 4SM -SHRA BR OVC005
     FM041500 24016G25KT P6SM VCSH BKN012 BKN025=



000
FTUS41 KAKQ 031700
TAFRIC
TAF
KRIC 031736Z 0318/0418 18006KT P6SM OVC035
     FM032200 19009KT 5SM -SHRA BKN012 OVC025
     FM040400 21012KT 4SM -SHRA OVC005
     FM041500 24013G20KT P6SM VCSH BKN010 BKN025 OVC050=



000
FTUS41 KAKQ 031700
TAFPHF
TAF
KPHF 031736Z 0318/0418 17005KT P6SM OVC045
     FM032300 20012KT 5SM -SHRA BKN012 OVC030
     FM040300 22013KT 4SM -SHRA BR OVC005
     FM041500 24014G23KT P6SM VCSH BKN012 BKN025=



000
FTUS41 KAKQ 031700
TAFSBY
TAF
KSBY 031736Z 0318/0418 18009KT P6SM BKN050 BKN100
     FM032100 19011KT 5SM -SHRA BKN012 OVC025
     FM040200 20013G20KT 4SM -SHRA BR OVC004
     FM041000 24010KT 3SM -RA BR OVC004=



000
FTUS41 KAKQ 031700
TAFORF
TAF
KORF 031736Z 0318/0418 07008KT P6SM OVC045
     FM032300 20012KT 5SM -SHRA BKN012 OVC030
     FM040300 22012KT 4SM -SHRA BR OVC005
     FM041500 24016G25KT P6SM VCSH BKN012 BKN025=



000
FTUS41 KAKQ 031700
TAFECG
TAF
KECG 031736Z 0318/0418 08008KT P6SM OVC045
     FM032100 12010KT 5SM -SHRA BKN012 OVC030
     FM040200 22012KT 4SM -SHRA BR OVC005
     FM041500 24016G24KT P6SM VCSH BKN010 BKN025=



000
FTUS41 KAKQ 031700
TAFPHF
TAF
KPHF 031736Z 0318/0418 17005KT P6SM OVC045
     FM032300 20012KT 5SM -SHRA BKN012 OVC030
     FM040300 22013KT 4SM -SHRA BR OVC005
     FM041500 24014G23KT P6SM VCSH BKN012 BKN025=



000
FTUS41 KAKQ 031700
TAFRIC
TAF
KRIC 031736Z 0318/0418 18006KT P6SM OVC035
     FM032200 19009KT 5SM -SHRA BKN012 OVC025
     FM040400 21012KT 4SM -SHRA OVC005
     FM041500 24013G20KT P6SM VCSH BKN010 BKN025 OVC050=



000
FTUS41 KAKQ 031700
TAFSBY
TAF
KSBY 031736Z 0318/0418 18009KT P6SM BKN050 BKN100
     FM032100 19011KT 5SM -SHRA BKN012 OVC025
     FM040200 20013G20KT 4SM -SHRA BR OVC004
     FM041000 24010KT 3SM -RA BR OVC004=



000
FTUS41 KAKQ 031100
TAFSBY
TAF
KSBY 031140Z 0312/0412 06005KT P6SM SCT050 BKN250
     FM031900 14005KT P6SM OVC050
     FM032000 17007KT 4SM -RA SCT012 OVC040
     FM040200 21011KT 4SM BR OVC005=



000
FTUS41 KAKQ 031100
TAFPHF
TAF
KPHF 031140Z 0312/0412 06005KT P6SM SCT060 BKN250
     FM031700 14006KT P6SM OVC050
     FM032300 17008KT 4SM -RA SCT012 OVC040
     FM040300 19008KT 4SM BR OVC005=



000
FTUS41 KAKQ 031100
TAFRIC
TAF
KRIC 031140Z 0312/0412 07003KT P6SM SCT050 BKN250
     FM031400 13005KT P6SM OVC050
     FM032100 18008KT 4SM -RA SCT012 OVC040
     FM040300 21011KT 4SM BR OVC005=



000
FTUS41 KAKQ 031100
TAFECG
TAF
KECG 031140Z 0312/0412 03008KT P6SM SCT060 BKN250
     FM031400 06006KT P6SM OVC050
     FM032100 13005KT 4SM -RA SCT012 OVC040
     FM040200 21011KT 4SM BR OVC008=



000
FTUS41 KAKQ 031100
TAFORF
TAF
KORF 031140Z 0312/0412 05007KT P6SM SCT060 BKN250
     FM031700 12006KT P6SM OVC050
     FM032200 18008KT 4SM -RA SCT012 OVC040
     FM040300 22012KT 4SM BR OVC005=



000
FTUS41 KAKQ 031100
TAFSBY
TAF
KSBY 031140Z 0312/0412 06005KT P6SM SCT050 BKN250
     FM031900 14005KT P6SM OVC050
     FM032000 17007KT 4SM -RA SCT012 OVC040
     FM040200 21011KT 4SM BR OVC005=



000
FTUS41 KAKQ 031100
TAFRIC
TAF
KRIC 031140Z 0312/0412 07003KT P6SM SCT050 BKN250
     FM031400 13005KT P6SM OVC050
     FM032100 18008KT 4SM -RA SCT012 OVC040
     FM040300 21011KT 4SM BR OVC005=



000
FTUS41 KAKQ 031100
TAFPHF
TAF
KPHF 031140Z 0312/0412 06005KT P6SM SCT060 BKN250
     FM031700 14006KT P6SM OVC050
     FM032300 17008KT 4SM -RA SCT012 OVC040
     FM040300 19008KT 4SM BR OVC005=



000
FTUS41 KAKQ 031100
TAFECG
TAF
KECG 031140Z 0312/0412 03008KT P6SM SCT060 BKN250
     FM031400 06006KT P6SM OVC050
     FM032100 13005KT 4SM -RA SCT012 OVC040
     FM040200 21011KT 4SM BR OVC008=



000
FTUS41 KAKQ 031100
TAFORF
TAF
KORF 031140Z 0312/0412 05007KT P6SM SCT060 BKN250
     FM031700 12006KT P6SM OVC050
     FM032200 18008KT 4SM -RA SCT012 OVC040
     FM040300 22012KT 4SM BR OVC005=



000
FTUS41 KAKQ 030500
TAFSBY
TAF
KSBY 030535Z 0306/0406 35005KT P6SM SCT250
     FM031500 12005KT P6SM BKN090 OVC150
     FM032100 17007KT 4SM -RA BR OVC040
     FM040000 19008KT 4SM -RA BR SCT009 OVC020=



000
FTUS41 KAKQ 030500
TAFECG
TAF
KECG 030535Z 0306/0406 03008KT P6SM OVC050
     FM030800 03008KT P6SM BKN200
     FM031400 05006KT P6SM OVC100
     FM032100 12005KT P6SM OVC040
     FM040200 18012KT P6SM OVC020=



000
FTUS41 KAKQ 030500
TAFORF
TAF
KORF 030535Z 0306/0406 01007KT P6SM SCT250
     FM031400 06005KT P6SM BKN100 OVC200
     FM031700 10006KT P6SM BKN050 OVC120
     FM040000 18008KT 4SM -RA BR OVC040
     FM040300 20012KT 4SM -RA BR SCT009 OVC020=



000
FTUS41 KAKQ 030500
TAFECG
TAF
KECG 030535Z 0306/0406 03008KT P6SM OVC050
     FM030800 03008KT P6SM BKN200
     FM031400 05006KT P6SM OVC100
     FM032100 12005KT P6SM OVC040
     FM040200 18012KT P6SM OVC020=



000
FTUS41 KAKQ 030500
TAFPHF
TAF
KPHF 030535Z 0306/0406 04004KT P6SM SCT250
     FM031400 07004KT P6SM BKN100 OVC200
     FM031700 14006KT P6SM BKN050 OVC120
     FM032300 17005KT 4SM -RA BR SCT020 OVC040
     FM040200 19008KT 4SM -RA BR SCT009 OVC020=



000
FTUS41 KAKQ 030500
TAFRIC
TAF
KRIC 030535Z 0306/0406 04004KT P6SM BKN250
     FM031400 13005KT P6SM BKN040 OVC090
     FM032100 19007KT 4SM -RA BR SCT020 OVC040
     FM040000 18008KT 4SM -RA BR SCT009 OVC020=



000
FTUS41 KAKQ 030500
TAFPHF
TAF
KPHF 030535Z 0306/0406 04004KT P6SM SCT250
     FM031400 07004KT P6SM BKN100 OVC200
     FM031700 14006KT P6SM BKN050 OVC120
     FM032300 17005KT 4SM -RA BR SCT020 OVC040
     FM040200 19008KT 4SM -RA BR SCT009 OVC020=



000
FTUS41 KAKQ 030500
TAFRIC
TAF
KRIC 030535Z 0306/0406 04004KT P6SM BKN250
     FM031400 13005KT P6SM BKN040 OVC090
     FM032100 19007KT 4SM -RA BR SCT020 OVC040
     FM040000 18008KT 4SM -RA BR SCT009 OVC020=



000
FTUS41 KAKQ 030500
TAFORF
TAF
KORF 030535Z 0306/0406 01007KT P6SM SCT250
     FM031400 06005KT P6SM BKN100 OVC200
     FM031700 10006KT P6SM BKN050 OVC120
     FM040000 18008KT 4SM -RA BR OVC040
     FM040300 20012KT 4SM -RA BR SCT009 OVC020=



000
FTUS41 KAKQ 030500
TAFSBY
TAF
KSBY 030535Z 0306/0406 35005KT P6SM SCT250
     FM031500 12005KT P6SM BKN090 OVC150
     FM032100 17007KT 4SM -RA BR OVC040
     FM040000 19008KT 4SM -RA BR SCT009 OVC020=



000
FTUS41 KAKQ 022300
TAFPHF
TAF
KPHF 022339Z 0300/0324 09004KT P6SM SCT250
     FM030800 04003KT P6SM BKN200
     FM031400 07004KT P6SM BKN100 OVC200
     FM031700 14006KT P6SM BKN050 OVC120
     FM032200 17005KT 4SM -RA BR OVC040=



000
FTUS41 KAKQ 022300
TAFECG
TAF
KECG 022339Z 0300/0324 06006KT P6SM SCT250
     FM030800 03010KT P6SM BKN200
     FM031400 05006KT P6SM OVC100
     FM032100 12005KT P6SM OVC040=



000
FTUS41 KAKQ 022300
TAFRIC
TAF
KRIC 022339Z 0300/0324 04004KT P6SM BKN250
     FM031400 13006KT P6SM BKN040 OVC090
     FM031900 19007KT 4SM -RA BR OVC040
     FM032200 18006KT 2SM -RA BR OVC025=



000
FTUS41 KAKQ 022300
TAFORF
TAF
KORF 022339Z 0300/0324 05007KT P6SM SCT250
     FM031400 06005KT P6SM BKN100 OVC200
     FM031700 10006KT P6SM BKN050 OVC120
     FM032200 18008KT 4SM -RA BR OVC040=



000
FTUS41 KAKQ 022300
TAFSBY
TAF
KSBY 022339Z 0300/0324 34005KT P6SM SCT250
     FM030600 VRB03KT P6SM BKN250
     FM031500 12005KT P6SM BKN090 OVC150
     FM032100 17007KT 4SM -RA BR OVC040=



000
FTUS41 KAKQ 022300
TAFRIC
TAF
KRIC 022339Z 0300/0324 04004KT P6SM BKN250
     FM031400 13006KT P6SM BKN040 OVC090
     FM031900 19007KT 4SM -RA BR OVC040
     FM032200 18006KT 2SM -RA BR OVC025=



000
FTUS41 KAKQ 022300
TAFSBY
TAF
KSBY 022339Z 0300/0324 34005KT P6SM SCT250
     FM030600 VRB03KT P6SM BKN250
     FM031500 12005KT P6SM BKN090 OVC150
     FM032100 17007KT 4SM -RA BR OVC040=



000
FTUS41 KAKQ 022300
TAFORF
TAF
KORF 022339Z 0300/0324 05007KT P6SM SCT250
     FM031400 06005KT P6SM BKN100 OVC200
     FM031700 10006KT P6SM BKN050 OVC120
     FM032200 18008KT 4SM -RA BR OVC040=



000
FTUS41 KAKQ 022300
TAFPHF
TAF
KPHF 022339Z 0300/0324 09004KT P6SM SCT250
     FM030800 04003KT P6SM BKN200
     FM031400 07004KT P6SM BKN100 OVC200
     FM031700 14006KT P6SM BKN050 OVC120
     FM032200 17005KT 4SM -RA BR OVC040=



000
FTUS41 KAKQ 022300
TAFECG
TAF
KECG 022339Z 0300/0324 06006KT P6SM SCT250
     FM030800 03010KT P6SM BKN200
     FM031400 05006KT P6SM OVC100
     FM032100 12005KT P6SM OVC040=



000
FTUS41 KAKQ 022200 AAA
TAFECG
TAF AMD
KECG 022202Z 0222/0318 05008KT P6SM SCT250
     FM030800 03006KT P6SM SCT120 BKN200
     FM031600 09006KT P6SM BKN040 OVC100=



000
FTUS41 KAKQ 022200 AAA
TAFECG
TAF AMD
KECG 022202Z 0222/0318 05008KT P6SM SCT250
     FM030800 03006KT P6SM SCT120 BKN200
     FM031600 09006KT P6SM BKN040 OVC100=



000
FTUS41 KAKQ 022200 AAA
TAFPHF
TAF AMD
KPHF 022201Z 0222/0318 07004KT P6SM SCT250
     FM030800 07003KT P6SM SCT120 BKN200
     FM031700 14006KT P6SM BKN050 OVC120=



000
FTUS41 KAKQ 022100 AAA
TAFORF
TAF AMD
KORF 022156Z 0222/0318 03009KT P6SM SCT250
     FM030800 05006KT P6SM SCT120 BKN200
     FM031700 10006KT P6SM BKN050 OVC120=



000
FTUS41 KAKQ 022100 AAA
TAFORF
TAF AMD
KORF 022156Z 0222/0318 03009KT P6SM SCT250
     FM030800 05006KT P6SM SCT120 BKN200
     FM031700 10006KT P6SM BKN050 OVC120=



000
FTUS41 KAKQ 022100 AAA
TAFSBY
TAF AMD
KSBY 022129Z 0221/0318 31010KT P6SM SCT250
     FM030000 34005KT P6SM SCT250
     FM030600 VRB03KT P6SM BKN120 BKN250
     FM031500 12005KT P6SM BKN090 OVC150=



000
FTUS41 KAKQ 022000 AAA
TAFRIC
TAF AMD
KRIC 022017Z 0220/0318 02008KT P6SM FEW040 BKN250
     FM030000 04004KT P6SM SCT250
     FM030600 VRB03KT P6SM SCT120 BKN250
     FM031500 17006KT P6SM BKN040 OVC090=



000
FTUS41 KAKQ 021700
TAFECG
TAF
KECG 021728Z 0218/0318 36013G21KT P6SM SCT015 BKN040 BKN120
     FM022000 01013G21KT P6SM SCT050 BKN250
     FM030000 02010KT P6SM SCT250
     FM030800 03006KT P6SM SCT120 BKN200
     FM031600 09006KT P6SM BKN040 OVC100=



000
FTUS41 KAKQ 021700
TAFSBY
TAF
KSBY 021728Z 0218/0318 31015G22KT P6SM FEW040 SCT250
     FM022300 34005KT P6SM SCT250
     FM030600 VRB03KT P6SM BKN120 BKN250
     FM031500 12005KT P6SM BKN090 OVC150=



000
FTUS41 KAKQ 021700
TAFORF
TAF
KORF 021728Z 0218/0318 01013G20KT P6SM SCT050 BKN150
     FM022300 03010KT P6SM SCT250
     FM030800 05006KT P6SM BKN120 BKN200
     FM031700 10006KT P6SM BKN050 OVC120=



000
FTUS41 KAKQ 021700
TAFRIC
TAF
KRIC 021728Z 0218/0318 03010G16KT P6SM FEW030 BKN250
     FM022300 04004KT P6SM SCT100 SCT250
     FM030600 VRB03KT P6SM BKN120 BKN250
     FM031500 17006KT P6SM BKN040 OVC090=



000
FTUS41 KAKQ 021700
TAFRIC
TAF
KRIC 021728Z 0218/0318 03010G16KT P6SM FEW030 BKN250
     FM022300 04004KT P6SM SCT100 SCT250
     FM030600 VRB03KT P6SM BKN120 BKN250
     FM031500 17006KT P6SM BKN040 OVC090=



000
FTUS41 KAKQ 021700
TAFPHF
TAF
KPHF 021728Z 0218/0318 02013G20KT P6SM FEW060 BKN250
     FM022300 04004KT P6SM SCT250
     FM030800 07003KT P6SM BKN120 BKN200
     FM031700 14006KT P6SM BKN050 OVC120=



000
FTUS41 KAKQ 021700
TAFORF
TAF
KORF 021728Z 0218/0318 01013G20KT P6SM SCT050 BKN150
     FM022300 03010KT P6SM SCT250
     FM030800 05006KT P6SM BKN120 BKN200
     FM031700 10006KT P6SM BKN050 OVC120=



000
FTUS41 KAKQ 021700
TAFPHF
TAF
KPHF 021728Z 0218/0318 02013G20KT P6SM FEW060 BKN250
     FM022300 04004KT P6SM SCT250
     FM030800 07003KT P6SM BKN120 BKN200
     FM031700 14006KT P6SM BKN050 OVC120=



000
FTUS41 KAKQ 021700
TAFECG
TAF
KECG 021728Z 0218/0318 36013G21KT P6SM SCT015 BKN040 BKN120
     FM022000 01013G21KT P6SM SCT050 BKN250
     FM030000 02010KT P6SM SCT250
     FM030800 03006KT P6SM SCT120 BKN200
     FM031600 09006KT P6SM BKN040 OVC100=



000
FTUS41 KAKQ 021700
TAFSBY
TAF
KSBY 021728Z 0218/0318 31015G22KT P6SM FEW040 SCT250
     FM022300 34005KT P6SM SCT250
     FM030600 VRB03KT P6SM BKN120 BKN250
     FM031500 12005KT P6SM BKN090 OVC150=



000
FTUS41 KAKQ 021500 AAB
TAFECG
TAF AMD
KECG 021512Z 0215/0312 27010G15KT P6SM BKN007 OVC030
     FM021800 35012G20KT P6SM BKN050
     FM022000 01006KT P6SM SCT250=



000
FTUS41 KAKQ 021500 AAB
TAFECG
TAF AMD
KECG 021512Z 0215/0312 27010G15KT P6SM BKN007 OVC030
     FM021800 35012G20KT P6SM BKN050
     FM022000 01006KT P6SM SCT250=



000
FTUS41 KAKQ 021500 AAA
TAFPHF
TAF AMD
KPHF 021511Z 0215/0312 36010G16KT P6SM BKN007 OVC080
     FM021600 32008KT P6SM SCT015 BKN030
     FM021800 35010KT P6SM BKN050
     FM022000 04007KT P6SM SCT250=



000
FTUS41 KAKQ 021500 AAC
TAFORF
TAF AMD
KORF 021510Z 0215/0312 34012G18KT P6SM BKN007 BKN060 OVC090
     FM021600 36012KT P6SM SCT015 BKN040
     FM021800 01012G20KT P6SM BKN050
     FM022000 02007KT P6SM SCT250=



000
FTUS41 KAKQ 021300 AAA
TAFECG
TAF AMD
KECG 021329Z 0213/0312 25008KT 3SM BR OVC002
     FM021400 27008KT 5SM BR BKN006 OVC012
     FM021500 30009KT P6SM SCT015 OVC030
     FM021800 35012G20KT P6SM BKN050
     FM022000 01006KT P6SM SCT250=



000
FTUS41 KAKQ 021300 AAA
TAFECG
TAF AMD
KECG 021329Z 0213/0312 25008KT 3SM BR OVC002
     FM021400 27008KT 5SM BR BKN006 OVC012
     FM021500 30009KT P6SM SCT015 OVC030
     FM021800 35012G20KT P6SM BKN050
     FM022000 01006KT P6SM SCT250=



000
FTUS41 KAKQ 021300 AAA
TAFSBY
TAF AMD
KSBY 021328Z 0213/0312 27005KT 4SM BR OVC030
     FM021400 29008KT 6SM BR BKN030 OVC070
     FM021530 32013G20KT P6SM BKN050
     FM021800 31011KT P6SM SCT250=



000
FTUS41 KAKQ 021300 AAA
TAFSBY
TAF AMD
KSBY 021328Z 0213/0312 27005KT 4SM BR OVC030
     FM021400 29008KT 6SM BR BKN030 OVC070
     FM021530 32013G20KT P6SM BKN050
     FM021800 31011KT P6SM SCT250=



000
FTUS41 KAKQ 021300 AAB
TAFORF
TAF AMD
KORF 021328Z 0213/0312 24008KT 5SM -RA BR SCT005 BKN060 OVC090
     FM021500 32010KT P6SM SCT015 BKN040
     FM021800 01012G20KT P6SM BKN050
     FM022000 02007KT P6SM SCT250=



000
FTUS41 KAKQ 021300 AAA
TAFRIC
TAF AMD
KRIC 021327Z 0213/0312 25007KT 2SM BR FEW005 SCT070 BKN120
     FM021500 34010KT P6SM SCT060 BKN200
     FM021700 35007KT P6SM SCT050 SCT250
     FM022300 04003KT P6SM SCT100 SCT250=



000
FTUS41 KAKQ 021300 AAA
TAFRIC
TAF AMD
KRIC 021327Z 0213/0312 25007KT 2SM BR FEW005 SCT070 BKN120
     FM021500 34010KT P6SM SCT060 BKN200
     FM021700 35007KT P6SM SCT050 SCT250
     FM022300 04003KT P6SM SCT100 SCT250=



000
FTUS41 KAKQ 021100 CCB
TAFPHF
TAF COR
KPHF 021159Z 0212/0312 25008KT 4SM BR OVC003
     FM021300 27009KT 5SM BR SCT006 OVC012
     FM021500 32008KT P6SM SCT015 OVC030
     FM021800 35010KT P6SM BKN050
     FM022000 04007KT P6SM SCT250=



000
FTUS41 KAKQ 021100 CCB
TAFSBY
TAF COR
KSBY 021153Z 0212/0312 26005KT 2SM BR OVC002
     FM021400 29008KT 5SM BR OVC007
     FM021530 32013G20KT P6SM BKN050
     FM021800 31011KT P6SM SCT250=



000
FTUS41 KAKQ 021100 CCA
TAFRIC
TAF COR
KRIC 021152Z 0212/0312 22007KT 1SM BR OVC003
     FM021300 25007KT 4SM BR OVC005
     FM021500 34010KT P6SM OVC015
     FM021700 35007KT P6SM SCT050 SCT250
     FM022300 04003KT P6SM SCT100 SCT250=



000
FTUS41 KAKQ 021100 CCA
TAFPHF
TAF COR
KPHF 021150Z 0212/0312 25007KT 4SM BR OVC002
     FM021300 27009KT 5SM BR SCT006 OVC012
     FM021500 32008KT P6SM SCT015 OVC030
     FM021800 35010KT P6SM BKN050
     FM022000 04007KT P6SM SCT250=



000
FTUS41 KAKQ 021100 AAA
TAFORF
TAF AMD
KORF 021149Z 0212/0312 24008KT 3SM BR OVC002
     FM021400 25007KT 5SM BR SCT008 OVC015
     FM021500 32010KT P6SM SCT015 OVC030
     FM021800 01012G20KT P6SM BKN050
     FM022000 02007KT P6SM SCT250=



000
FTUS41 KAKQ 021100 CCA
TAFSBY
TAF COR
KSBY 021148Z 0212/0312 26005KT 1 1/2SM BR OVC002
     FM021400 29008KT 4SM BR OVC007
     FM021530 32013G20KT P6SM BKN050
     FM021800 31011KT P6SM SCT250=



000
FTUS41 KAKQ 021100
TAFORF
TAF
KORF 021120Z 0212/0312 23008KT 1 1/2SM BR OVC002
     FM021400 25007KT 4SM BR SCT008 OVC015
     FM021500 32010KT P6SM SCT015 OVC030
     FM021800 01012G20KT P6SM BKN050
     FM022000 02007KT P6SM SCT250=



000
FTUS41 KAKQ 021100
TAFSBY
TAF
KSBY 021120Z 0212/0312 27005KT 1/2SM FG VV002
      TEMPO 0213/0214 1 1/2SM BR
     FM021400 29008KT 4SM BR OVC007
     FM021530 32013G20KT P6SM BKN050
     FM021800 31011KT P6SM SCT250=



000
FTUS41 KAKQ 021100
TAFRIC
TAF
KRIC 021120Z 0212/0312 22007KT 1/2SM FG VV002
      TEMPO 0212/0213 1 1/2SM BR
     FM021300 25007KT 4SM BR OVC005
     FM021500 34010KT P6SM OVC015
     FM021700 35007KT P6SM SCT050 SCT250
     FM022300 04003KT P6SM SCT100 SCT250=



000
FTUS41 KAKQ 021100
TAFECG
TAF
KECG 021120Z 0212/0312 25008KT 3/4SM BR OVC002
      TEMPO 0212/0214 1 1/2SM BR
     FM021400 27008KT 4SM BR SCT006 OVC012
     FM021500 30009KT P6SM SCT015 OVC030
     FM021800 35012G20KT P6SM BKN050
     FM022000 01006KT P6SM SCT250=



000
FTUS41 KAKQ 021100
TAFPHF
TAF
KPHF 021120Z 0212/0312 25009KT 2SM BR OVC002
     FM021300 27009KT 4SM BR SCT006 OVC012
     FM021500 32008KT P6SM SCT015 OVC030
     FM021800 35010KT P6SM BKN050
     FM022000 04007KT P6SM SCT250=



000
FTUS41 KAKQ 021100
TAFSBY
TAF
KSBY 021120Z 0212/0312 27005KT 1/2SM FG VV002
      TEMPO 0213/0214 1 1/2SM BR
     FM021400 29008KT 4SM BR OVC007
     FM021530 32013G20KT P6SM BKN050
     FM021800 31011KT P6SM SCT250=



000
FTUS41 KAKQ 021100
TAFRIC
TAF
KRIC 021120Z 0212/0312 22007KT 1/2SM FG VV002
      TEMPO 0212/0213 1 1/2SM BR
     FM021300 25007KT 4SM BR OVC005
     FM021500 34010KT P6SM OVC015
     FM021700 35007KT P6SM SCT050 SCT250
     FM022300 04003KT P6SM SCT100 SCT250=



000
FTUS41 KAKQ 021100
TAFPHF
TAF
KPHF 021120Z 0212/0312 25009KT 2SM BR OVC002
     FM021300 27009KT 4SM BR SCT006 OVC012
     FM021500 32008KT P6SM SCT015 OVC030
     FM021800 35010KT P6SM BKN050
     FM022000 04007KT P6SM SCT250=



000
FTUS41 KAKQ 021100
TAFECG
TAF
KECG 021120Z 0212/0312 25008KT 3/4SM BR OVC002
      TEMPO 0212/0214 1 1/2SM BR
     FM021400 27008KT 4SM BR SCT006 OVC012
     FM021500 30009KT P6SM SCT015 OVC030
     FM021800 35012G20KT P6SM BKN050
     FM022000 01006KT P6SM SCT250=



000
FTUS41 KAKQ 021100
TAFORF
TAF
KORF 021120Z 0212/0312 23008KT 1 1/2SM BR OVC002
     FM021400 25007KT 4SM BR SCT008 OVC015
     FM021500 32010KT P6SM SCT015 OVC030
     FM021800 01012G20KT P6SM BKN050
     FM022000 02007KT P6SM SCT250=



000
FTUS41 KAKQ 021100 AAC
TAFECG
TAF AMD
KECG 021106Z 0211/0306 24008KT 1 1/2SM BR OVC002
     FM021300 24008KT 4SM BR SCT006 OVC012
     FM021500 32009KT P6SM SCT015 OVC030
     FM021800 01012G20KT P6SM BKN050
     FM022000 01006KT P6SM SCT250=



000
FTUS41 KAKQ 021100 AAE
TAFPHF
TAF AMD
KPHF 021105Z 0211/0306 24008KT 1 1/2SM BR OVC002
     FM021300 24008KT 4SM BR SCT006 OVC012
     FM021500 33008KT P6SM SCT015 OVC030
     FM021800 35010KT P6SM BKN050
     FM022000 04007KT P6SM SCT250=



000
FTUS41 KAKQ 021100 AAC
TAFORF
TAF AMD
KORF 021105Z 0211/0306 23008KT 1 1/2SM BR OVC002
     FM021400 23007KT P6SM SCT008 OVC015
     FM021500 33010KT P6SM SCT015 OVC030
     FM021800 01012G20KT P6SM BKN050
     FM022000 02007KT P6SM SCT250=



000
FTUS41 KAKQ 021100 AAC
TAFORF
TAF AMD
KORF 021105Z 0211/0306 23008KT 1 1/2SM BR OVC002
     FM021400 23007KT P6SM SCT008 OVC015
     FM021500 33010KT P6SM SCT015 OVC030
     FM021800 01012G20KT P6SM BKN050
     FM022000 02007KT P6SM SCT250=



000
FTUS41 KAKQ 021100 AAE
TAFPHF
TAF AMD
KPHF 021105Z 0211/0306 24008KT 1 1/2SM BR OVC002
     FM021300 24008KT 4SM BR SCT006 OVC012
     FM021500 33008KT P6SM SCT015 OVC030
     FM021800 35010KT P6SM BKN050
     FM022000 04007KT P6SM SCT250=



000
FTUS41 KAKQ 021100 AAB
TAFSBY
TAF AMD
KSBY 021103Z 0211/0306 27005KT 1/2SM FG VV002
     FM021400 28008KT 4SM BR OVC007
     FM021500 32013G20KT P6SM BKN050
     FM021800 31011KT P6SM SCT250=



000
FTUS41 KAKQ 021100 AAB
TAFSBY
TAF AMD
KSBY 021103Z 0211/0306 27005KT 1/2SM FG VV002
     FM021400 28008KT 4SM BR OVC007
     FM021500 32013G20KT P6SM BKN050
     FM021800 31011KT P6SM SCT250=



000
FTUS41 KAKQ 020900 AAB
TAFECG
TAF AMD
KECG 020942Z 0210/0306 23007KT 3/4SM BR OVC002
      TEMPO 0210/0212 1/2SM FG
     FM021300 24008KT 4SM BR SCT006 OVC012
     FM021500 32009KT P6SM SCT015 OVC030
     FM021800 01012G20KT P6SM BKN050
     FM022000 01006KT P6SM SCT250=



000
FTUS41 KAKQ 020900 AAD
TAFPHF
TAF AMD
KPHF 020942Z 0210/0306 24007KT 3/4SM BR OVC002
     FM021000 24007KT 1/2SM FG OVC002
     FM021300 24008KT 4SM BR SCT006 OVC012
     FM021500 33008KT P6SM SCT015 OVC030
     FM021800 35010KT P6SM BKN050
     FM022000 04007KT P6SM SCT250=



000
FTUS41 KAKQ 020900 AAD
TAFPHF
TAF AMD
KPHF 020942Z 0210/0306 24007KT 3/4SM BR OVC002
     FM021000 24007KT 1/2SM FG OVC002
     FM021300 24008KT 4SM BR SCT006 OVC012
     FM021500 33008KT P6SM SCT015 OVC030
     FM021800 35010KT P6SM BKN050
     FM022000 04007KT P6SM SCT250=



000
FTUS41 KAKQ 020900 AAB
TAFECG
TAF AMD
KECG 020942Z 0210/0306 23007KT 3/4SM BR OVC002
      TEMPO 0210/0212 1/2SM FG
     FM021300 24008KT 4SM BR SCT006 OVC012
     FM021500 32009KT P6SM SCT015 OVC030
     FM021800 01012G20KT P6SM BKN050
     FM022000 01006KT P6SM SCT250=



000
FTUS41 KAKQ 020900 AAB
TAFORF
TAF AMD
KORF 020940Z 0210/0306 23007KT 1SM BR OVC002
     FM021000 23007KT 3/4SM BR OVC002
      TEMPO 0210/0212 1/2SM FG
     FM021300 23007KT P6SM SCT008 OVC015
     FM021500 33010KT P6SM SCT015 OVC030
     FM021800 01012G20KT P6SM BKN050
     FM022000 02007KT P6SM SCT250=



000
FTUS41 KAKQ 020900 AAB
TAFORF
TAF AMD
KORF 020940Z 0210/0306 23007KT 1SM BR OVC002
     FM021000 23007KT 3/4SM BR OVC002
      TEMPO 0210/0212 1/2SM FG
     FM021300 23007KT P6SM SCT008 OVC015
     FM021500 33010KT P6SM SCT015 OVC030
     FM021800 01012G20KT P6SM BKN050
     FM022000 02007KT P6SM SCT250=



000
FTUS41 KAKQ 020900 AAA
TAFSBY
TAF AMD
KSBY 020938Z 0210/0306 26006KT 3/4SM BR VV002
     FM021300 23008KT 4SM BR OVC007
     FM021500 32013G20KT P6SM BKN050
     FM021800 31011KT P6SM SCT250=



000
FTUS41 KAKQ 020800 AAA
TAFECG
TAF AMD
KECG 020813Z 0208/0306 24007KT 3/4SM BR OVC003
      TEMPO 0209/0211 1/4SM FG
     FM021300 24008KT P6SM SCT006 OVC012
     FM021500 32009KT P6SM SCT015 OVC030
     FM021800 01012G20KT P6SM BKN050
     FM022000 01006KT P6SM SCT250=



000
FTUS41 KAKQ 020800 AAC
TAFPHF
TAF AMD
KPHF 020811Z 0208/0306 25007KT P6SM OVC005
      TEMPO 0209/0211 1/2SM FG SCT005
     FM021300 24008KT P6SM SCT006 OVC012
     FM021500 33008KT P6SM SCT015 OVC030
     FM021800 35010KT P6SM BKN050
     FM022000 04007KT P6SM SCT250=



000
FTUS41 KAKQ 020800 AAA
TAFORF
TAF AMD
KORF 020810Z 0208/0306 22010KT P6SM OVC006
      TEMPO 0208/0210 SCT006
     FM021300 23007KT P6SM SCT008 OVC015
     FM021500 33010KT P6SM SCT015 OVC030
     FM021800 01012G20KT P6SM BKN050
     FM022000 02007KT P6SM SCT250=



000
FTUS41 KAKQ 020700 AAA
TAFRIC
TAF AMD
KRIC 020728Z 0207/0306 21006KT 1/2SM FG VV002
      TEMPO 0208/0211 1/4SM FG
     FM021300 23006KT 4SM BR OVC005
     FM021500 34010KT P6SM OVC015
     FM021700 35007KT P6SM SCT050 BKN250=



000
FTUS41 KAKQ 020600 AAB
TAFPHF
TAF AMD
KPHF 020630Z 0207/0306 23008KT 2SM BR OVC002
      TEMPO 0208/0211 1/2SM FG
     FM021300 24008KT P6SM SCT006 OVC012
     FM021500 33008KT P6SM SCT015 OVC030
     FM021800 35010KT P6SM BKN050
     FM022000 04007KT P6SM SCT250=



000
FTUS41 KAKQ 020600 AAB
TAFPHF
TAF AMD
KPHF 020630Z 0207/0306 23008KT 2SM BR OVC002
      TEMPO 0208/0211 1/2SM FG
     FM021300 24008KT P6SM SCT006 OVC012
     FM021500 33008KT P6SM SCT015 OVC030
     FM021800 35010KT P6SM BKN050
     FM022000 04007KT P6SM SCT250=



000
FTUS41 KAKQ 020600 AAA
TAFPHF
TAF AMD
KPHF 020621Z 0206/0306 25008KT 1 1/2SM BR OVC003
      TEMPO 0208/0211 1/2SM FG
     FM021300 24008KT P6SM SCT006 OVC012
     FM021500 33008KT P6SM SCT015 OVC030
     FM021800 35010KT P6SM BKN050
     FM022000 04007KT P6SM SCT250=



000
FTUS41 KAKQ 020600 AAA
TAFPHF
TAF AMD
KPHF 020621Z 0206/0306 25008KT 1 1/2SM BR OVC003
      TEMPO 0208/0211 1/2SM FG
     FM021300 24008KT P6SM SCT006 OVC012
     FM021500 33008KT P6SM SCT015 OVC030
     FM021800 35010KT P6SM BKN050
     FM022000 04007KT P6SM SCT250=



000
FTUS41 KAKQ 020600 CCA
TAFPHF
TAF COR
KPHF 020600Z 0206/0306 25008KT 4SM BR OVC003
     FM021300 24008KT P6SM SCT006 OVC012
     FM021500 33008KT P6SM SCT015 OVC030
     FM021800 35010KT P6SM BKN050
     FM022000 04007KT P6SM SCT250=



000
FTUS41 KAKQ 020600 CCA
TAFPHF
TAF COR
KPHF 020600Z 0206/0306 25008KT 4SM BR OVC003
     FM021300 24008KT P6SM SCT006 OVC012
     FM021500 33008KT P6SM SCT015 OVC030
     FM021800 35010KT P6SM BKN050
     FM022000 04007KT P6SM SCT250=



000
FTUS41 KAKQ 020500 CCA
TAFORF
TAF COR
KORF 020559Z 0206/0306 24008KT P6SM OVC007
     FM021300 23007KT P6SM SCT008 OVC015
     FM021500 33010KT P6SM SCT015 OVC030
     FM021800 01012G20KT P6SM BKN050
     FM022000 02007KT P6SM SCT250=



000
FTUS41 KAKQ 020500 CCA
TAFSBY
TAF COR
KSBY 020559Z 0206/0306 24004KT 1 1/2SM BR OVC002
     FM021300 23008KT 4SM BR OVC007
     FM021500 32013G20KT P6SM BKN050
     FM021800 31011KT P6SM SCT250=



000
FTUS41 KAKQ 020500 CCA
TAFORF
TAF COR
KORF 020559Z 0206/0306 24008KT P6SM OVC007
     FM021300 23007KT P6SM SCT008 OVC015
     FM021500 33010KT P6SM SCT015 OVC030
     FM021800 01012G20KT P6SM BKN050
     FM022000 02007KT P6SM SCT250=



000
FTUS41 KAKQ 020500 CCA
TAFSBY
TAF COR
KSBY 020559Z 0206/0306 24004KT 1 1/2SM BR OVC002
     FM021300 23008KT 4SM BR OVC007
     FM021500 32013G20KT P6SM BKN050
     FM021800 31011KT P6SM SCT250=



000
FTUS41 KAKQ 020500
TAFPHF
TAF
KPHF 020520Z 0206/0306 25008KT P6SM OVC004
     FM021300 24008KT P6SM SCT006 OVC012
     FM021500 33008KT P6SM SCT015 OVC030
     FM021800 35010KT P6SM BKN050
     FM022000 04007KT P6SM SCT250=



000
FTUS41 KAKQ 020500
TAFORF
TAF
KORF 020520Z 0206/0306 24008KT 5SM BR OVC007
     FM021300 23007KT P6SM SCT008 OVC015
     FM021500 33010KT P6SM SCT015 OVC030
     FM021800 01012G20KT P6SM BKN050
     FM022000 02007KT P6SM SCT250=



000
FTUS41 KAKQ 020500
TAFRIC
TAF
KRIC 020520Z 0206/0306 21006KT 3/4SM BR VV002
      TEMPO 0208/0211 1/4SM FG
     FM021300 23006KT 4SM BR OVC005
     FM021500 34010KT P6SM OVC015
     FM021700 35007KT P6SM SCT050 BKN250=



000
FTUS41 KAKQ 020500
TAFECG
TAF
KECG 020520Z 0206/0306 25005KT P6SM OVC003
     FM021300 24008KT P6SM SCT006 OVC012
     FM021500 32009KT P6SM SCT015 OVC030
     FM021800 01012G20KT P6SM BKN050
     FM022000 01006KT P6SM SCT250=



000
FTUS41 KAKQ 020500
TAFSBY
TAF
KSBY 020520Z 0206/0306 24004KT 2SM BR OVC002
     FM021300 23008KT 4SM BR OVC007
     FM021500 32013G20KT P6SM BKN050
     FM021800 31011KT P6SM SCT250=



000
FTUS41 KAKQ 020500
TAFSBY
TAF
KSBY 020520Z 0206/0306 24004KT 2SM BR OVC002
     FM021300 23008KT 4SM BR OVC007
     FM021500 32013G20KT P6SM BKN050
     FM021800 31011KT P6SM SCT250=



000
FTUS41 KAKQ 020500
TAFPHF
TAF
KPHF 020520Z 0206/0306 25008KT P6SM OVC004
     FM021300 24008KT P6SM SCT006 OVC012
     FM021500 33008KT P6SM SCT015 OVC030
     FM021800 35010KT P6SM BKN050
     FM022000 04007KT P6SM SCT250=



000
FTUS41 KAKQ 020500
TAFORF
TAF
KORF 020520Z 0206/0306 24008KT 5SM BR OVC007
     FM021300 23007KT P6SM SCT008 OVC015
     FM021500 33010KT P6SM SCT015 OVC030
     FM021800 01012G20KT P6SM BKN050
     FM022000 02007KT P6SM SCT250=



000
FTUS41 KAKQ 020500
TAFRIC
TAF
KRIC 020520Z 0206/0306 21006KT 3/4SM BR VV002
      TEMPO 0208/0211 1/4SM FG
     FM021300 23006KT 4SM BR OVC005
     FM021500 34010KT P6SM OVC015
     FM021700 35007KT P6SM SCT050 BKN250=



000
FTUS41 KAKQ 020500
TAFECG
TAF
KECG 020520Z 0206/0306 25005KT P6SM OVC003
     FM021300 24008KT P6SM SCT006 OVC012
     FM021500 32009KT P6SM SCT015 OVC030
     FM021800 01012G20KT P6SM BKN050
     FM022000 01006KT P6SM SCT250=



000
FTUS41 KAKQ 020500 AAB
TAFRIC
TAF AMD
KRIC 020501Z 0205/0224 20007KT 1SM BR OVC002
     FM020800 23006KT 4SM BR OVC005
     FM021500 34010KT P6SM BKN050=



000
FTUS41 KAKQ 020400 AAB
TAFECG
TAF AMD
KECG 020436Z 0205/0224 29004KT P6SM OVC003
     FM020800 24008KT 5SM BR SCT006 OVC012
     FM021500 32009KT 5SM BR SCT015 OVC030
     FM021800 01012G20KT P6SM BKN050=



000
FTUS41 KAKQ 020400 AAB
TAFPHF
TAF AMD
KPHF 020434Z 0205/0224 25006KT P6SM BKN005
     FM020800 24008KT 5SM BR SCT006 OVC012
     FM021500 33008KT P6SM SCT015 OVC030
     FM021800 01010KT P6SM BKN050=



000
FTUS41 KAKQ 020400 AAB
TAFPHF
TAF AMD
KPHF 020434Z 0205/0224 25006KT P6SM BKN005
     FM020800 24008KT 5SM BR SCT006 OVC012
     FM021500 33008KT P6SM SCT015 OVC030
     FM021800 01010KT P6SM BKN050=



000
FTUS41 KAKQ 020400 AAB
TAFSBY
TAF AMD
KSBY 020433Z 0205/0224 24004KT 2SM BR OVC002
     FM020800 23008KT 4SM BR SCT005 OVC012
     FM021500 32013G20KT P6SM BKN050=



000
FTUS41 KAKQ 020400 AAB
TAFSBY
TAF AMD
KSBY 020433Z 0205/0224 24004KT 2SM BR OVC002
     FM020800 23008KT 4SM BR SCT005 OVC012
     FM021500 32013G20KT P6SM BKN050=



    US Dept of Commerce
    National Oceanic and Atmospheric Administration
    National Weather Service
    1325 East West Highway
    Silver Spring, MD 20910
    Page Author: NWS Internet Services Team
Disclaimer
Information Quality
Credits
Glossary
Privacy Policy
Freedom of Information Act (FOIA)
About Us
Career Opportunities